Time;durP1;ratioP1;P1;durP2;ratioP2;P2;SDS_P1;SDS_P2;PMS_P1;PMS_P2;Temp;Humidity;BMP_temperature;BMP_pressure;BME280_temperature;BME280_humidity;BME280_pressure;Samples;Min_cycle;Max_cycle;Signal;HPM_P1;HPM_P2
2022/04/01 00:02:20;;;;;;;4.10;1.88;;;0.80;99.90;;;;;;5055046;28;20119;-73
2022/04/01 00:04:46;;;;;;;7.07;2.00;;;0.90;99.90;;;;;;5038375;28;20128;-73
2022/04/01 00:07:12;;;;;;;4.93;2.75;;;1.80;99.90;;;;;;5055088;28;20094;-73
2022/04/01 00:09:38;;;;;;;3.40;2.05;;;0.90;99.90;;;;;;5038722;28;20071;-73
2022/04/01 00:12:05;;;;;;;2.53;1.67;;;1.10;99.90;;;;;;5038293;28;20079;-73
2022/04/01 00:14:31;;;;;;;3.33;1.80;;;1.00;99.90;;;;;;5055060;28;20405;-73
2022/04/01 00:16:57;;;;;;;3.72;1.60;;;1.00;99.90;;;;;;5055029;28;20445;-72
2022/04/01 00:19:23;;;;;;;3.83;1.58;;;1.00;99.90;;;;;;5054722;28;20056;-72
2022/04/01 00:21:49;;;;;;;5.18;1.75;;;1.00;99.90;;;;;;5038341;28;20059;-72
2022/04/01 00:24:15;;;;;;;2.63;1.80;;;1.00;99.90;;;;;;5055117;28;20040;-73
2022/04/01 00:26:40;;;;;;;3.35;1.77;;;1.00;99.90;;;;;;5022005;28;20083;-72
2022/04/01 00:29:15;;;;;;;3.38;1.52;;;1.10;99.90;;;;;;5054739;28;20040;-73
2022/04/01 00:31:46;;;;;;;2.65;1.40;;;1.10;99.90;;;;;;5054754;28;20075;-73
2022/04/01 00:34:15;;;;;;;2.95;1.38;;;1.10;99.90;;;;;;5054789;28;20044;-73
2022/04/01 00:36:46;;;;;;;2.60;1.27;;;1.10;99.90;;;;;;5057208;28;20040;-73
2022/04/01 00:39:13;;;;;;;4.13;1.67;;;1.10;99.90;;;;;;5061433;28;20131;-73
2022/04/01 00:41:39;;;;;;;3.20;1.50;;;1.10;99.90;;;;;;5061667;28;20052;-73
2022/04/01 00:44:19;;;;;;;5.75;1.60;;;1.10;99.90;;;;;;5044576;28;20047;-73
2022/04/01 00:47:00;;;;;;;3.70;1.52;;;1.10;99.90;;;;;;5061591;28;20087;-73
2022/04/01 00:49:27;;;;;;;3.08;1.65;;;1.10;99.90;;;;;;5078063;28;20044;-72
2022/04/01 00:51:57;;;;;;;4.10;1.38;;;1.10;99.90;;;;;;5044329;28;20041;-73
2022/04/01 00:54:24;;;;;;;2.50;1.52;;;1.10;99.90;;;;;;5061481;28;20048;-72
2022/04/01 00:56:50;;;;;;;2.95;1.58;;;1.10;99.90;;;;;;5061216;28;20033;-73
2022/04/01 00:59:17;;;;;;;2.20;1.25;;;1.10;99.90;;;;;;5077936;28;20037;-73
2022/04/01 01:01:47;;;;;;;4.10;1.50;;;1.40;99.90;;;;;;5061790;28;20408;-73
2022/04/01 01:04:15;;;;;;;3.22;1.33;;;1.10;99.90;;;;;;5061769;28;20048;-73
2022/04/01 01:06:43;;;;;;;2.92;1.42;;;1.10;99.90;;;;;;5044582;28;20048;-73
2022/04/01 01:09:10;;;;;;;2.75;1.50;;;1.20;99.90;;;;;;5061158;28;20620;-73
2022/04/01 01:11:37;;;;;;;3.65;1.48;;;1.20;99.90;;;;;;5061096;28;20044;-73
2022/04/01 01:14:10;;;;;;;3.08;1.55;;;1.20;99.90;;;;;;5061026;28;20194;-72
2022/04/01 01:16:40;;;;;;;4.10;2.00;;;1.20;99.90;;;;;;5061063;28;20407;-73
2022/04/01 01:19:16;;;;;;;3.95;1.50;;;1.20;99.90;;;;;;5060645;28;20057;-73
2022/04/01 01:21:44;;;;;;;2.97;1.23;;;1.20;99.90;;;;;;5061287;28;20044;-72
2022/04/01 01:24:11;;;;;;;4.60;1.65;;;1.20;99.90;;;;;;5061278;28;20088;-73
2022/04/01 01:26:38;;;;;;;3.38;1.70;;;1.20;99.90;;;;;;5061021;28;20052;-73
2022/04/01 01:29:06;;;;;;;5.88;1.77;;;1.30;99.90;;;;;;5044262;28;20114;-73
2022/04/01 01:31:33;;;;;;;3.35;1.70;;;1.30;99.90;;;;;;5060850;28;20080;-73
2022/04/01 01:34:00;;;;;;;2.58;1.58;;;1.30;99.90;;;;;;5044875;28;20403;-73
2022/04/01 01:36:28;;;;;;;2.90;1.65;;;1.60;99.90;;;;;;5061204;28;20113;-73
2022/04/01 01:38:54;;;;;;;4.22;1.70;;;1.20;99.90;;;;;;5060896;28;20040;-72
2022/04/01 01:41:20;;;;;;;4.43;1.98;;;1.20;99.90;;;;;;5060833;28;20052;-73
2022/04/01 01:43:46;;;;;;;2.70;1.45;;;1.20;99.90;;;;;;5044089;28;20512;-73
2022/04/01 01:46:13;;;;;;;3.72;1.65;;;1.50;99.90;;;;;;5044132;28;20040;-73
2022/04/01 01:48:39;;;;;;;4.57;2.05;;;1.20;99.90;;;;;;5074628;28;20438;-72
2022/04/01 01:56:34;;;;;;;2.75;1.52;;;1.50;99.90;;;;;;5057448;28;20079;-72
2022/04/01 01:59:00;;;;;;;4.53;2.40;;;1.20;99.90;;;;;;5057389;28;20040;-73
2022/04/01 02:01:26;;;;;;;4.38;2.17;;;1.20;99.90;;;;;;5057434;28;20048;-72
2022/04/01 02:03:52;;;;;;;4.15;2.00;;;1.20;99.90;;;;;;5024419;28;20036;-72
2022/04/01 02:06:21;;;;;;;3.60;1.80;;;1.20;99.90;;;;;;5040663;28;20445;-73
2022/04/01 02:08:50;;;;;;;3.08;1.80;;;1.10;99.90;;;;;;5057496;28;20107;-73
2022/04/01 02:11:17;;;;;;;3.08;1.60;;;1.10;99.90;;;;;;5057269;28;20131;-72
2022/04/01 02:13:43;;;;;;;3.22;2.03;;;1.10;99.90;;;;;;5057244;28;20044;-72
2022/04/01 02:16:08;;;;;;;4.93;2.13;;;1.10;99.90;;;;;;5040575;28;20384;-72
2022/04/01 02:18:34;;;;;;;3.75;1.83;;;1.30;99.90;;;;;;5057207;28;20174;-72
2022/04/01 02:21:00;;;;;;;7.95;2.10;;;1.10;99.90;;;;;;5057273;28;20048;-72
2022/04/01 02:23:26;;;;;;;3.13;1.38;;;1.70;99.90;;;;;;5056817;28;20193;-73
2022/04/01 02:25:51;;;;;;;4.30;1.67;;;1.10;99.90;;;;;;5056931;28;20143;-73
2022/04/01 02:28:17;;;;;;;2.83;1.60;;;1.10;99.90;;;;;;5056928;28;20036;-73
2022/04/01 02:30:43;;;;;;;3.63;1.70;;;1.20;99.90;;;;;;5056984;28;20047;-74
2022/04/01 02:33:09;;;;;;;2.35;1.40;;;1.10;99.90;;;;;;5040178;28;20032;-73
2022/04/01 02:35:35;;;;;;;5.15;2.00;;;1.40;99.90;;;;;;5040556;28;20048;-74
2022/04/01 02:38:01;;;;;;;3.35;1.40;;;1.20;99.90;;;;;;5040192;28;20036;-74
2022/04/01 02:40:27;;;;;;;3.38;1.80;;;1.20;99.90;;;;;;5056884;28;20055;-74
2022/04/01 02:42:54;;;;;;;3.08;1.45;;;1.20;99.90;;;;;;5056427;28;20044;-73
2022/04/01 02:45:21;;;;;;;3.60;1.60;;;1.20;99.90;;;;;;5056621;28;20414;-73
2022/04/01 02:47:47;;;;;;;2.72;1.33;;;1.20;99.90;;;;;;5056550;28;20083;-73
2022/04/01 02:50:13;;;;;;;2.22;1.10;;;1.30;99.90;;;;;;5056421;28;20084;-73
2022/04/01 02:52:39;;;;;;;2.55;1.35;;;1.20;99.90;;;;;;5039955;28;20500;-73
2022/04/01 02:55:06;;;;;;;2.67;1.42;;;1.30;99.90;;;;;;5056329;28;20032;-73
2022/04/01 02:57:33;;;;;;;3.25;1.40;;;1.30;99.90;;;;;;5056368;28;20040;-74
2022/04/01 02:59:59;;;;;;;3.03;1.52;;;1.30;99.90;;;;;;5039447;28;20036;-73
2022/04/01 03:02:25;;;;;;;3.75;1.50;;;1.30;99.90;;;;;;5039569;28;20036;-73
2022/04/01 03:04:51;;;;;;;2.65;1.40;;;1.30;99.90;;;;;;5039647;28;20075;-73
2022/04/01 03:07:17;;;;;;;2.95;1.45;;;1.30;99.90;;;;;;5039564;28;20506;-73
2022/04/01 03:09:42;;;;;;;4.57;2.00;;;1.30;99.90;;;;;;5056394;28;20048;-73
2022/04/01 03:12:08;;;;;;;3.65;1.30;;;1.30;99.90;;;;;;5039482;28;20041;-73
2022/04/01 03:14:34;;;;;;;2.17;1.50;;;1.40;99.90;;;;;;5039273;28;20045;-73
2022/04/01 03:17:00;;;;;;;2.60;1.38;;;1.40;99.90;;;;;;5056064;28;20045;-73
2022/04/01 03:19:28;;;;;;;2.15;1.65;;;1.40;99.90;;;;;;5055719;28;20067;-73
2022/04/01 03:21:54;;;;;;;3.92;1.25;;;1.40;99.90;;;;;;5039501;28;20041;-73
2022/04/01 03:24:20;;;;;;;5.88;1.40;;;1.40;99.90;;;;;;5055785;28;20112;-73
2022/04/01 03:26:46;;;;;;;2.15;1.30;;;1.40;99.90;;;;;;5055890;28;20051;-72
2022/04/01 03:29:12;;;;;;;4.63;1.45;;;1.40;99.90;;;;;;5039328;28;20044;-71
2022/04/01 03:31:38;;;;;;;5.25;1.73;;;1.40;99.90;;;;;;5055716;28;20040;-72
2022/04/01 03:34:04;;;;;;;4.95;1.95;;;1.40;99.90;;;;;;5055744;28;20139;-71
2022/04/01 03:36:31;;;;;;;3.08;1.67;;;1.40;99.90;;;;;;5039312;28;20131;-71
2022/04/01 03:38:57;;;;;;;4.63;1.52;;;1.40;99.90;;;;;;5055669;28;20094;-73
2022/04/01 03:41:23;;;;;;;3.15;1.63;;;3.50;99.90;;;;;;5055949;28;20052;-73
2022/04/01 03:43:52;;;;;;;5.85;1.70;;;1.40;99.90;;;;;;5038672;28;20438;-73
2022/04/01 03:46:21;;;;;;;3.53;1.05;;;1.40;99.90;;;;;;5055730;28;20049;-73
2022/04/01 03:49:03;;;;;;;3.70;1.85;;;1.40;99.90;;;;;;5038890;28;20082;-73
2022/04/01 03:51:29;;;;;;;;;;;1.40;99.90;;;;;;5055741;28;20127;-73
2022/04/01 03:54:02;;;;;;;3.75;1.27;;;1.40;99.90;;;;;;5055596;28;20283;-73
2022/04/01 03:56:35;;;;;;;8.40;1.30;;;1.40;99.90;;;;;;5022921;28;20043;-73
2022/04/01 03:59:04;;;;;;;3.72;1.35;;;1.60;99.90;;;;;;5038872;28;20563;-73
2022/04/01 04:01:30;;;;;;;3.22;1.65;;;1.40;99.90;;;;;;5038652;28;20093;-73
2022/04/01 04:03:56;;;;;;;3.65;1.33;;;1.50;99.90;;;;;;5038425;28;20044;-72
2022/04/01 04:06:23;;;;;;;2.47;1.40;;;1.50;99.90;;;;;;5055175;28;20121;-72
2022/04/01 04:08:58;;;;;;;4.38;1.30;;;1.90;99.90;;;;;;5038637;28;20072;-72
2022/04/01 04:11:25;;;;;;;2.30;1.20;;;1.50;99.90;;;;;;5037765;28;20075;-72
2022/04/01 04:13:58;;;;;;;4.75;1.42;;;1.50;99.90;;;;;;5038455;28;20037;-72
2022/04/01 04:16:25;;;;;;;4.30;1.00;;;1.60;99.90;;;;;;5055061;28;20134;-72
2022/04/01 04:19:19;;;;;;;3.45;1.60;;;1.50;99.90;;;;;;5054715;28;20060;-72
2022/04/01 04:21:49;;;;;;;4.20;1.10;;;1.50;99.90;;;;;;5038424;28;20131;-72
2022/04/01 04:24:20;;;;;;;3.50;1.42;;;1.60;99.90;;;;;;5055004;28;20036;-72
2022/04/01 04:26:51;;;;;;;3.20;1.48;;;1.60;99.90;;;;;;5072949;28;20036;-72
2022/04/01 04:29:18;;;;;;;7.68;1.92;;;1.60;99.90;;;;;;5038777;28;20487;-73
2022/04/01 04:32:10;;;;;;;4.70;1.42;;;1.60;99.90;;;;;;5054672;28;20055;-73
2022/04/01 04:34:37;;;;;;;2.95;1.50;;;1.60;99.90;;;;;;5038207;28;20161;-73
2022/04/01 04:37:09;;;;;;;1.90;1.35;;;1.60;99.90;;;;;;5054755;28;20050;-72
2022/04/01 04:39:38;;;;;;;2.90;1.50;;;1.60;99.90;;;;;;5055083;28;20487;-72
2022/04/01 04:42:05;;;;;;;3.75;1.20;;;1.60;99.90;;;;;;5037994;28;20067;-72
2022/04/01 04:44:31;;;;;;;5.38;1.83;;;1.60;99.90;;;;;;5055025;28;20074;-72
2022/04/01 04:46:58;;;;;;;2.45;1.33;;;1.60;99.90;;;;;;5037967;28;20122;-73
2022/04/01 04:49:27;;;;;;;4.90;1.42;;;1.60;99.90;;;;;;5054591;28;20086;-72
2022/04/01 04:51:54;;;;;;;3.90;1.40;;;1.60;99.90;;;;;;5054582;28;20142;-72
2022/04/01 04:54:21;;;;;;;3.45;1.58;;;1.70;99.90;;;;;;5054571;28;20044;-72
2022/04/01 04:56:49;;;;;;;3.55;1.20;;;1.60;99.90;;;;;;5038146;28;20360;-72
2022/04/01 04:59:19;;;;;;;3.22;1.35;;;1.90;99.90;;;;;;5054478;28;20044;-73
2022/04/01 05:02:01;;;;;;;4.55;1.20;;;1.70;99.90;;;;;;5054865;28;20045;-73
2022/04/01 05:04:39;;;;;;;;;;;1.60;99.90;;;;;;5038388;28;20047;-73
2022/04/01 05:07:10;;;;;;;3.67;1.08;;;1.60;99.90;;;;;;5054736;28;20374;-72
2022/04/01 05:09:36;;;;;;;;;;;1.60;99.90;;;;;;5054895;28;20059;-72
2022/04/01 05:12:07;;;;;;;5.72;1.30;;;1.60;99.90;;;;;;5037902;28;19921;-72
2022/04/01 05:14:53;;;;;;;;;;;1.60;99.90;;;;;;5055012;28;20048;-72
2022/04/01 05:17:54;;;;;;;2.50;1.30;;;1.60;99.90;;;;;;5053555;28;19960;-72
2022/04/01 05:20:28;;;;;;;4.60;1.30;;;1.60;99.90;;;;;;5054436;28;20068;-72
2022/04/01 05:23:05;;;;;;;5.00;1.30;;;1.60;99.90;;;;;;5055772;28;20059;-71
2022/04/01 05:25:39;;;;;;;8.13;1.40;;;1.70;99.90;;;;;;5058167;28;20050;-72
2022/04/01 05:28:10;;;;;;;4.15;1.40;;;1.70;99.90;;;;;;5057878;28;20137;-72
2022/04/01 05:30:38;;;;;;;5.45;1.52;;;1.70;99.90;;;;;;5057998;28;20052;-72
2022/04/01 05:33:18;;;;;;;3.13;1.30;;;1.70;99.90;;;;;;5041597;28;20051;-71
2022/04/01 05:35:51;;;;;;;7.47;3.30;;;1.70;99.90;;;;;;5057963;28;20052;-72
2022/04/01 05:38:21;;;;;;;2.55;1.17;;;1.70;99.90;;;;;;5042445;28;20392;-72
2022/04/01 05:40:50;;;;;;;3.40;1.23;;;1.70;99.90;;;;;;5058075;28;20407;-72
2022/04/01 05:43:16;;;;;;;4.85;1.42;;;2.00;99.90;;;;;;5057748;28;20044;-71
2022/04/01 05:45:43;;;;;;;2.85;1.20;;;1.80;99.90;;;;;;5057696;28;20040;-72
2022/04/01 05:48:12;;;;;;;5.15;1.77;;;1.80;99.90;;;;;;5057346;28;20037;-72
2022/04/01 05:50:39;;;;;;;2.65;1.30;;;1.80;99.90;;;;;;5057714;28;20036;-72
2022/04/01 05:53:06;;;;;;;5.07;1.20;;;1.90;99.90;;;;;;5057437;28;20045;-71
2022/04/01 05:55:33;;;;;;;2.42;1.15;;;2.20;99.90;;;;;;5057527;28;20226;-72
2022/04/01 05:58:02;;;;;;;3.55;1.33;;;1.90;99.90;;;;;;5057423;28;20072;-72
2022/04/01 06:00:32;;;;;;;2.85;1.42;;;1.90;99.90;;;;;;5041320;28;20078;-72
2022/04/01 06:03:29;;;;;;;4.03;1.20;;;1.90;99.90;;;;;;5057927;28;20500;-72
2022/04/01 06:06:14;;;;;;;4.63;1.70;;;1.90;99.90;;;;;;5057280;28;20090;-72
2022/04/01 06:08:54;;;;;;;4.47;1.05;;;2.00;99.90;;;;;;5057217;28;20071;-71
2022/04/01 06:11:35;;;;;;;5.82;1.45;;;2.10;99.90;;;;;;5057227;28;20051;-70
2022/04/01 06:14:02;;;;;;;4.13;1.23;;;2.10;99.90;;;;;;5040674;28;20043;-72
2022/04/01 06:16:57;;;;;;;7.20;1.35;;;2.10;99.90;;;;;;5057196;28;20388;-71
2022/04/01 06:19:42;;;;;;;1.50;1.00;;;2.10;99.90;;;;;;5056867;28;20098;-72
2022/04/01 06:22:16;;;;;;;2.55;1.17;;;2.20;99.90;;;;;;5040334;28;20041;-73
2022/04/01 06:25:10;;;;;;;5.18;1.40;;;2.20;99.90;;;;;;5057201;28;20459;-74
2022/04/01 06:27:48;;;;;;;2.70;1.30;;;2.20;99.90;;;;;;5056940;28;20045;-73
2022/04/01 06:30:24;;;;;;;3.95;1.35;;;2.30;99.90;;;;;;5056753;28;20051;-73
2022/04/01 06:33:13;;;;;;;2.17;0.98;;;2.30;99.90;;;;;;5056730;28;20090;-73
2022/04/01 06:35:48;;;;;;;6.63;1.35;;;2.30;99.90;;;;;;5056030;28;20033;-72
2022/04/01 06:38:29;;;;;;;2.28;1.00;;;2.40;99.90;;;;;;5056533;28;20070;-73
2022/04/01 06:41:25;;;;;;;4.57;1.10;;;2.40;99.90;;;;;;5040232;28;20427;-73
2022/04/01 06:43:51;;;;;;;4.72;1.15;;;2.40;99.90;;;;;;5055503;28;20474;-71
2022/04/01 06:46:17;;;;;;;2.70;1.20;;;2.50;99.90;;;;;;5056560;28;20072;-72
2022/04/01 06:48:43;;;;;;;5.32;1.20;;;2.50;99.90;;;;;;5039861;28;20484;-73
2022/04/01 06:51:08;;;;;;;2.38;1.15;;;2.50;99.90;;;;;;5056338;28;20037;-73
2022/04/01 06:53:37;;;;;;;2.67;1.40;;;2.70;99.90;;;;;;5056370;28;20499;-72
2022/04/01 06:56:03;;;;;;;3.42;1.20;;;2.60;99.90;;;;;;5056224;28;20044;-73
2022/04/01 06:58:30;;;;;;;2.35;1.23;;;2.70;99.90;;;;;;5056448;28;20043;-72
2022/04/01 07:00:56;;;;;;;2.97;1.30;;;2.70;99.90;;;;;;5056366;28;20040;-72
2022/04/01 07:03:22;;;;;;;3.53;1.20;;;2.70;99.90;;;;;;5039761;28;20055;-71
2022/04/01 07:05:49;;;;;;;4.97;1.50;;;2.60;99.90;;;;;;5039866;28;20036;-71
2022/04/01 07:08:16;;;;;;;4.78;1.17;;;3.00;99.90;;;;;;5039369;28;20036;-72
2022/04/01 07:10:42;;;;;;;2.20;1.10;;;2.60;99.90;;;;;;5055858;28;20048;-72
2022/04/01 07:13:10;;;;;;;2.45;1.13;;;2.60;99.90;;;;;;5055907;28;20121;-72
2022/04/01 07:15:36;;;;;;;2.80;1.10;;;2.60;99.90;;;;;;5039586;28;20036;-72
2022/04/01 07:18:02;;;;;;;2.60;1.00;;;2.60;99.90;;;;;;5055347;28;20094;-72
2022/04/01 07:20:29;;;;;;;4.30;1.38;;;2.60;99.90;;;;;;5055846;28;20052;-72
2022/04/01 07:22:54;;;;;;;3.33;1.30;;;2.70;99.90;;;;;;5055696;28;20075;-72
2022/04/01 07:25:22;;;;;;;2.50;1.17;;;2.60;99.90;;;;;;5039382;28;20098;-71
2022/04/01 07:27:48;;;;;;;2.22;1.10;;;2.60;99.90;;;;;;5055673;28;20036;-73
2022/04/01 07:30:14;;;;;;;2.20;1.02;;;2.60;99.90;;;;;;5039307;28;20048;-73
2022/04/01 07:32:40;;;;;;;3.20;1.52;;;2.50;99.90;;;;;;5055645;28;20123;-72
2022/04/01 07:35:14;;;;;;;5.88;1.65;;;2.60;99.90;;;;;;5038988;28;20127;-72
2022/04/01 07:37:42;;;;;;;2.85;1.30;;;2.60;99.90;;;;;;5073573;28;20425;-72
2022/04/01 07:40:09;;;;;;;3.70;1.30;;;2.60;99.90;;;;;;5038838;28;20044;-71
2022/04/01 07:42:35;;;;;;;6.47;1.77;;;2.60;99.90;;;;;;5055739;28;20055;-72
2022/04/01 07:45:03;;;;;;;2.42;1.45;;;2.60;99.90;;;;;;5072301;28;20044;-72
2022/04/01 07:47:31;;;;;;;3.33;1.60;;;2.50;99.90;;;;;;5054537;28;20077;-72
2022/04/01 07:49:57;;;;;;;4.05;1.70;;;2.50;99.90;;;;;;5055344;28;20119;-72
2022/04/01 07:52:23;;;;;;;3.28;1.42;;;2.50;99.90;;;;;;5055300;28;20170;-71
2022/04/01 07:54:51;;;;;;;2.33;1.20;;;2.80;99.90;;;;;;5055833;28;20041;-72
2022/04/01 07:57:18;;;;;;;5.18;1.50;;;2.50;99.90;;;;;;5055309;28;20158;-72
2022/04/01 07:59:44;;;;;;;6.63;1.65;;;2.40;99.90;;;;;;5055224;28;20048;-72
2022/04/01 08:02:10;;;;;;;5.13;1.35;;;2.40;99.90;;;;;;5055423;28;20044;-72
2022/04/01 08:04:36;;;;;;;3.83;2.17;;;2.40;99.90;;;;;;5055117;28;20047;-71
2022/04/01 08:07:02;;;;;;;3.80;2.10;;;2.40;99.90;;;;;;5054989;28;20076;-71
2022/04/01 08:09:28;;;;;;;3.38;2.08;;;2.50;99.90;;;;;;5038729;28;20076;-72
2022/04/01 08:11:54;;;;;;;3.17;1.83;;;2.60;99.90;;;;;;5054872;28;20044;-72
2022/04/01 08:14:20;;;;;;;5.97;2.70;;;2.60;99.90;;;;;;5054982;28;20039;-73
2022/04/01 08:16:47;;;;;;;6.38;2.63;;;2.60;99.90;;;;;;5054938;28;20051;-72
2022/04/01 08:19:13;;;;;;;5.95;2.72;;;2.70;99.90;;;;;;5038311;28;20056;-71
2022/04/01 08:21:39;;;;;;;5.97;2.97;;;2.70;99.90;;;;;;5071779;28;20040;-72
2022/04/01 08:24:07;;;;;;;9.30;3.08;;;2.80;99.90;;;;;;5038170;28;20089;-71
2022/04/01 08:26:33;;;;;;;5.00;2.88;;;2.90;99.90;;;;;;5038298;28;20257;-71
2022/04/01 08:28:59;;;;;;;5.93;3.40;;;2.90;99.90;;;;;;5038201;28;20045;-71
2022/04/01 08:31:25;;;;;;;4.40;2.92;;;2.90;99.90;;;;;;5054672;28;20041;-71
2022/04/01 08:33:50;;;;;;;7.88;4.30;;;3.00;99.90;;;;;;5037956;28;20507;-71
2022/04/01 08:36:17;;;;;;;8.02;3.53;;;3.10;99.90;;;;;;5054388;28;20488;-71
2022/04/01 08:38:43;;;;;;;7.15;3.65;;;3.10;99.90;;;;;;5054639;28;20094;-71
2022/04/01 08:41:09;;;;;;;7.22;3.80;;;3.10;99.90;;;;;;5054512;28;20052;-71
2022/04/01 08:43:39;;;;;;;5.93;4.00;;;3.20;99.90;;;;;;5054847;28;20037;-72
2022/04/01 08:46:08;;;;;;;4.47;3.53;;;3.20;99.90;;;;;;5054535;28;20045;-72
2022/04/01 08:48:35;;;;;;;9.05;4.28;;;3.20;99.90;;;;;;5054867;28;20193;-72
2022/04/01 08:51:01;;;;;;;7.03;4.22;;;3.30;99.90;;;;;;5054568;28;20037;-72
2022/04/01 08:53:27;;;;;;;6.22;3.83;;;3.30;99.90;;;;;;5054536;28;20040;-72
2022/04/01 08:55:56;;;;;;;5.55;4.15;;;3.30;99.90;;;;;;5054521;28;20040;-72
2022/04/01 08:58:24;;;;;;;7.38;4.22;;;3.50;99.90;;;;;;5056486;28;20086;-72
2022/04/01 09:00:51;;;;;;;6.22;4.40;;;3.60;99.90;;;;;;5058456;28;20406;-72
2022/04/01 09:03:19;;;;;;;6.30;4.18;;;3.60;99.90;;;;;;5041958;28;20070;-72
2022/04/01 09:05:56;;;;;;;8.95;4.60;;;3.60;99.90;;;;;;5058425;28;20098;-72
2022/04/01 09:08:30;;;;;;;6.88;3.97;;;3.60;99.90;;;;;;5041743;28;20037;-73
2022/04/01 09:11:01;;;;;;;8.20;4.53;;;3.60;99.90;;;;;;5058309;28;20094;-72
2022/04/01 09:13:30;;;;;;;8.57;4.43;;;3.60;99.90;;;;;;5058220;28;20068;-72
2022/04/01 09:15:56;;;;;;;8.00;4.75;;;3.60;99.90;;;;;;5057954;28;20085;-71
2022/04/01 09:18:40;;;;;;;7.75;4.75;;;3.70;99.90;;;;;;5058163;28;20097;-71
2022/04/01 09:21:11;;;;;;;7.57;4.22;;;3.70;99.90;;;;;;5058125;28;20052;-71
2022/04/01 09:23:38;;;;;;;5.28;3.22;;;4.20;99.90;;;;;;5058180;28;20561;-73
2022/04/01 09:26:06;;;;;;;9.35;4.75;;;3.50;99.90;;;;;;5057998;28;20434;-72
2022/04/01 09:28:33;;;;;;;6.85;4.38;;;3.60;99.90;;;;;;5058008;28;20037;-72
2022/04/01 09:31:06;;;;;;;8.10;4.50;;;3.50;99.90;;;;;;5058019;28;20402;-72
2022/04/01 09:33:48;;;;;;;8.68;4.00;;;3.60;99.90;;;;;;5057941;28;20036;-71
2022/04/01 09:36:22;;;;;;;10.77;5.40;;;3.60;99.90;;;;;;5041418;28;20043;-71
2022/04/01 09:39:18;;;;;;;7.78;4.38;;;3.70;99.90;;;;;;5041292;28;20075;-72
2022/04/01 09:41:49;;;;;;;9.55;5.93;;;3.70;99.90;;;;;;5057003;28;20052;-71
2022/04/01 09:44:20;;;;;;;7.03;4.93;;;3.80;99.90;;;;;;5057647;28;20040;-72
2022/04/01 09:46:56;;;;;;;7.82;4.75;;;3.70;99.90;;;;;;5057613;28;20044;-70
2022/04/01 09:49:44;;;;;;;6.70;4.28;;;3.60;99.90;;;;;;5057848;28;20084;-71
2022/04/01 09:52:15;;;;;;;6.32;4.13;;;3.90;99.90;;;;;;5057490;28;20040;-71
2022/04/01 09:54:49;;;;;;;5.75;4.00;;;4.40;99.90;;;;;;5057759;28;20396;-71
2022/04/01 09:57:16;;;;;;;5.43;3.60;;;4.00;99.90;;;;;;5057454;28;20041;-70
2022/04/01 09:59:43;;;;;;;6.05;3.65;;;3.90;99.90;;;;;;5057397;28;20043;-71
2022/04/01 10:02:09;;;;;;;8.68;3.92;;;4.00;99.90;;;;;;5040731;28;20040;-71
2022/04/01 10:04:35;;;;;;;5.53;3.75;;;4.00;99.90;;;;;;5057360;28;20044;-72
2022/04/01 10:07:03;;;;;;;6.70;4.03;;;4.20;99.90;;;;;;5057312;28;20067;-73
2022/04/01 10:09:30;;;;;;;5.05;3.38;;;4.30;99.90;;;;;;5056073;28;20040;-73
2022/04/01 10:12:00;;;;;;;4.80;2.95;;;4.40;99.90;;;;;;5057080;28;20127;-73
2022/04/01 10:14:27;;;;;;;6.53;3.15;;;4.70;99.90;;;;;;5056897;28;20070;-73
2022/04/01 10:16:55;;;;;;;4.93;3.15;;;4.50;99.90;;;;;;5057302;28;20451;-72
2022/04/01 10:19:33;;;;;;;4.97;3.38;;;4.60;99.90;;;;;;5056839;28;20049;-72
2022/04/01 10:22:00;;;;;;;5.07;3.45;;;4.30;99.90;;;;;;5056867;28;20041;-73
2022/04/01 10:24:43;;;;;;;5.75;2.80;;;4.40;99.90;;;;;;5056984;28;20086;-73
2022/04/01 10:27:31;;;;;;;5.95;2.47;;;4.60;99.90;;;;;;5056867;28;20042;-73
2022/04/01 10:29:57;;;;;;;3.70;2.78;;;4.40;99.90;;;;;;5040172;28;20040;-73
2022/04/01 10:32:24;;;;;;;4.95;2.42;;;4.50;99.90;;;;;;5056660;28;20044;-73
2022/04/01 10:34:51;;;;;;;3.58;2.22;;;4.50;99.90;;;;;;5056672;28;20040;-73
2022/04/01 10:37:18;;;;;;;4.60;2.50;;;4.80;99.90;;;;;;5040090;28;20044;-73
2022/04/01 10:39:52;;;;;;;3.83;2.42;;;4.40;99.90;;;;;;5040088;28;20047;-73
2022/04/01 10:42:18;;;;;;;4.60;2.00;;;4.60;99.90;;;;;;5056674;28;20082;-72
2022/04/01 10:44:55;;;;;;;4.82;2.13;;;4.50;99.90;;;;;;5056597;28;20117;-74
2022/04/01 10:51:36;;;;;;;2.80;1.75;;;4.30;99.90;;;;;;5039984;28;20067;-73
2022/04/01 10:53:50;;;;;;;3.13;1.88;;;4.30;99.90;;;;;;5056367;28;20044;-73
2022/04/01 10:56:25;;;;;;;5.40;2.13;;;4.60;99.90;;;;;;5055575;28;20125;-72
2022/04/01 10:59:01;;;;;;;6.55;2.45;;;4.40;99.90;;;;;;5056321;28;20123;-73
2022/04/01 11:01:27;;;;;;;6.72;2.83;;;4.80;99.90;;;;;;5039733;28;20040;-73
2022/04/01 11:03:53;;;;;;;3.47;2.10;;;4.80;99.90;;;;;;5072833;28;20040;-74
2022/04/01 11:06:23;;;;;;;4.88;2.30;;;4.70;99.90;;;;;;5056201;28;20059;-73
2022/04/01 11:08:53;;;;;;;3.03;2.22;;;4.80;99.90;;;;;;5039796;28;20051;-72
2022/04/01 11:11:19;;;;;;;3.60;1.98;;;;;;;;;;5039374;28;20146;-73
2022/04/01 11:14:02;;;;;;;4.90;2.30;;;4.50;99.90;;;;;;5055999;28;20044;-72
2022/04/01 11:16:45;;;;;;;4.63;3.03;;;4.60;99.90;;;;;;5056085;28;20047;-71
2022/04/01 11:19:16;;;;;;;3.95;1.80;;;5.40;99.90;;;;;;5073818;28;20040;-71
2022/04/01 11:21:46;;;;;;;3.78;1.65;;;4.80;99.90;;;;;;5055740;28;20052;-71
2022/04/01 11:24:33;;;;;;;2.67;1.77;;;4.90;99.90;;;;;;5039283;28;20045;-71
2022/04/01 11:27:23;;;;;;;3.60;1.92;;;4.90;99.90;;;;;;5039232;28;20344;-71
2022/04/01 11:30:13;;;;;;;4.13;2.10;;;5.10;99.90;;;;;;5055671;28;20504;-71
2022/04/01 11:32:41;;;;;;;2.22;1.30;;;5.10;99.90;;;;;;5055916;28;20040;-70
2022/04/01 11:35:10;;;;;;;3.55;1.70;;;5.30;99.90;;;;;;5038879;28;20117;-71
2022/04/01 11:37:44;;;;;;;5.20;1.60;;;5.20;99.90;;;;;;5039049;28;20115;-71
2022/04/01 11:40:12;;;;;;;4.43;1.80;;;5.20;99.90;;;;;;5038857;28;20098;-71
2022/04/01 11:42:54;;;;;;;3.05;1.20;;;5.00;99.90;;;;;;5038910;28;20119;-71
2022/04/01 11:45:20;;;;;;;2.88;1.55;;;5.50;99.90;;;;;;5055379;28;20131;-70
2022/04/01 11:47:46;;;;;;;3.15;1.45;;;4.80;99.90;;;;;;5055399;28;20041;-70
2022/04/01 11:50:15;;;;;;;2.92;1.50;;;4.70;99.90;;;;;;5071894;28;20041;-70
2022/04/01 11:52:42;;;;;;;2.40;1.55;;;4.70;99.90;;;;;;5055489;28;20570;-70
2022/04/01 11:55:19;;;;;;;4.07;1.77;;;4.60;99.90;;;;;;5055359;28;20083;-70
2022/04/01 11:57:47;;;;;;;2.70;1.33;;;4.50;99.90;;;;;;5055495;28;20423;-69
2022/04/01 12:00:18;;;;;;;3.45;1.50;;;4.40;99.90;;;;;;5038751;28;20051;-70
2022/04/01 12:02:45;;;;;;;2.42;1.40;;;4.50;99.90;;;;;;5054911;28;20080;-71
2022/04/01 12:05:11;;;;;;;3.35;1.60;;;4.50;99.90;;;;;;5055109;28;20075;-71
2022/04/01 12:10:24;;;;;;;5.18;1.42;;;4.40;99.90;;;;;;5054980;28;20082;-69
2022/04/01 12:12:53;;;;;;;3.78;1.50;;;4.50;99.90;;;;;;5054891;28;20036;-70
2022/04/01 12:15:30;;;;;;;2.78;1.63;;;4.50;99.90;;;;;;5055173;28;20040;-70
2022/04/01 12:17:56;;;;;;;5.97;1.83;;;4.50;99.90;;;;;;5055082;28;20040;-69
2022/04/01 12:20:22;;;;;;;3.22;1.77;;;4.60;99.90;;;;;;5054668;28;20056;-70
2022/04/01 12:22:50;;;;;;;3.30;1.52;;;4.60;99.90;;;;;;5038292;28;20515;-70
2022/04/01 12:25:16;;;;;;;2.65;1.50;;;4.80;99.90;;;;;;5038372;28;20044;-70
2022/04/01 12:27:56;;;;;;;3.33;1.90;;;4.80;99.90;;;;;;5038276;28;20163;-70
2022/04/01 12:30:38;;;;;;;4.40;1.73;;;4.90;99.90;;;;;;5038157;28;20239;-70
2022/04/01 12:33:09;;;;;;;3.38;1.70;;;5.00;99.90;;;;;;5054362;28;20503;-69
2022/04/01 12:35:47;;;;;;;3.17;1.52;;;5.10;99.90;;;;;;5054913;28;20392;-70
2022/04/01 12:38:13;;;;;;;5.47;1.95;;;5.20;99.90;;;;;;5037915;28;20043;-70
2022/04/01 12:40:44;;;;;;;4.93;1.77;;;5.20;99.90;;;;;;5038051;28;20037;-70
2022/04/01 12:43:29;;;;;;;5.63;1.67;;;5.30;99.90;;;;;;5054652;28;20036;-71
2022/04/01 12:46:04;;;;;;;2.10;1.52;;;5.40;99.90;;;;;;5072561;28;20050;-71
2022/04/01 12:48:30;;;;;;;8.60;2.30;;;5.30;99.90;;;;;;5038346;28;20052;-71
2022/04/01 12:51:03;;;;;;;3.22;1.67;;;5.50;99.90;;;;;;5054428;28;20040;-71
2022/04/01 12:53:30;;;;;;;3.08;1.60;;;5.50;99.90;;;;;;5054597;28;20047;-71
2022/04/01 12:56:16;;;;;;;3.28;1.80;;;5.50;99.90;;;;;;5054771;28;20056;-71
2022/04/01 12:59:07;;;;;;;4.55;1.80;;;5.60;99.90;;;;;;5038560;28;20040;-71
2022/04/01 13:01:35;;;;;;;3.40;1.88;;;5.50;99.90;;;;;;5045016;28;20064;-71
2022/04/01 13:04:02;;;;;;;3.63;1.67;;;5.60;99.90;;;;;;5054169;28;20049;-71
2022/04/01 13:06:29;;;;;;;4.30;1.63;;;5.50;99.90;;;;;;5054712;28;20487;-71
2022/04/01 13:09:08;;;;;;;3.33;1.70;;;5.50;99.90;;;;;;5037769;28;20041;-71
2022/04/01 13:11:39;;;;;;;4.65;2.15;;;5.40;99.90;;;;;;5054229;28;20506;-71
2022/04/01 13:14:33;;;;;;;3.42;1.75;;;6.10;99.90;;;;;;5054369;28;20044;-69
2022/04/01 13:16:59;;;;;;;2.80;1.42;;;5.50;99.90;;;;;;5052432;28;20109;-69
2022/04/01 13:19:30;;;;;;;4.13;1.80;;;5.40;99.90;;;;;;5054068;28;20170;-70
2022/04/01 13:21:57;;;;;;;;;;;5.50;99.90;;;;;;5055026;28;20086;-70
2022/04/01 13:24:27;;;;;;;3.67;1.80;;;5.40;99.90;;;;;;5071284;28;20398;-70
2022/04/01 13:26:53;;;;;;;3.35;1.65;;;5.50;99.90;;;;;;5053979;28;20051;-71